Time;durP1;ratioP1;P1;durP2;ratioP2;P2;SDS_P1;SDS_P2;PMS_P1;PMS_P2;Temp;Humidity;BMP_temperature;BMP_pressure;BME280_temperature;BME280_humidity;BME280_pressure;Samples;Min_cycle;Max_cycle;Signal;HPM_P1;HPM_P2
2023/03/24 00:01:03;;;;;;;6.30;2.47;;;11.20;99.90;;;;;;5055022;28;20064;-71
2023/03/24 00:03:29;;;;;;;4.88;2.45;;;11.30;99.90;;;;;;5038470;28;20150;-70
2023/03/24 00:06:01;;;;;;;8.02;2.60;;;11.20;99.90;;;;;;5055682;28;20496;-69
2023/03/24 00:08:34;;;;;;;3.53;1.90;;;11.20;99.90;;;;;;5038709;28;20095;-68
2023/03/24 00:11:02;;;;;;;6.60;2.38;;;11.20;99.90;;;;;;5055915;28;20053;-69
2023/03/24 00:13:28;;;;;;;6.00;2.78;;;11.20;99.90;;;;;;5021628;28;20052;-69
2023/03/24 00:15:54;;;;;;;4.75;2.38;;;11.20;99.90;;;;;;5056140;28;20053;-68
2023/03/24 00:18:21;;;;;;;5.65;2.13;;;11.20;99.90;;;;;;5055164;28;20079;-69
2023/03/24 00:20:47;;;;;;;6.43;2.42;;;11.30;99.90;;;;;;5037811;28;20464;-69
2023/03/24 00:23:14;;;;;;;6.57;2.15;;;11.20;99.90;;;;;;5055377;28;20084;-69
2023/03/24 00:25:40;;;;;;;5.70;2.83;;;11.20;99.90;;;;;;5055341;28;20052;-69
2023/03/24 00:28:06;;;;;;;6.72;2.70;;;11.20;99.90;;;;;;5037198;28;20044;-68
2023/03/24 00:30:33;;;;;;;8.07;2.40;;;11.30;99.90;;;;;;5055370;28;20045;-69
2023/03/24 00:33:00;;;;;;;5.25;2.75;;;11.20;99.90;;;;;;5037558;28;20064;-68
2023/03/24 00:35:27;;;;;;;4.80;2.33;;;11.10;99.90;;;;;;5055112;28;20060;-69
2023/03/24 00:37:53;;;;;;;6.90;2.70;;;11.10;99.90;;;;;;5055016;28;20045;-68
2023/03/24 00:40:20;;;;;;;5.10;2.80;;;11.20;99.90;;;;;;5055038;28;20048;-69
2023/03/24 00:42:48;;;;;;;4.32;2.08;;;11.20;99.90;;;;;;5055027;28;20048;-70
2023/03/24 00:45:18;;;;;;;4.90;2.03;;;11.20;99.90;;;;;;5054955;28;20067;-69
2023/03/24 00:47:44;;;;;;;5.28;2.20;;;11.10;99.90;;;;;;5037949;28;20052;-69
2023/03/24 00:50:16;;;;;;;5.18;2.38;;;11.30;99.90;;;;;;5037020;28;20126;-69
2023/03/24 00:52:46;;;;;;;4.15;2.13;;;11.00;99.90;;;;;;5054704;28;20072;-69
2023/03/24 00:55:14;;;;;;;6.57;2.70;;;11.10;99.90;;;;;;5054455;28;20588;-69
2023/03/24 00:57:48;;;;;;;5.20;2.38;;;11.20;99.90;;;;;;5055077;28;20493;-67
2023/03/24 01:00:17;;;;;;;4.95;2.08;;;11.20;99.90;;;;;;5037746;28;20060;-67
2023/03/24 01:02:45;;;;;;;5.78;2.53;;;11.20;99.90;;;;;;5037727;28;20103;-67
2023/03/24 01:05:13;;;;;;;5.28;2.33;;;11.10;99.90;;;;;;5055022;28;20036;-67
2023/03/24 01:07:40;;;;;;;4.53;2.60;;;11.10;99.90;;;;;;5054896;28;20432;-67
2023/03/24 01:10:11;;;;;;;5.70;2.15;;;11.10;99.90;;;;;;5054919;28;20045;-68
2023/03/24 01:12:38;;;;;;;3.80;1.80;;;11.20;99.90;;;;;;5054685;28;20056;-67
2023/03/24 01:15:07;;;;;;;6.57;2.13;;;11.00;99.90;;;;;;5037217;28;20095;-67
2023/03/24 01:17:33;;;;;;;4.30;2.30;;;11.10;99.90;;;;;;5055027;28;20403;-67
2023/03/24 01:20:00;;;;;;;5.63;2.50;;;11.10;99.90;;;;;;5037363;28;20049;-67
2023/03/24 01:22:29;;;;;;;4.82;2.15;;;11.10;99.90;;;;;;5036853;28;20049;-66
2023/03/24 01:24:55;;;;;;;4.93;2.22;;;11.10;99.90;;;;;;5055099;28;20466;-67
2023/03/24 01:27:21;;;;;;;4.40;2.38;;;11.10;99.90;;;;;;5037290;28;20393;-67
2023/03/24 01:29:47;;;;;;;4.43;2.25;;;11.10;99.90;;;;;;5055298;28;20049;-67
2023/03/24 01:32:13;;;;;;;6.00;2.22;;;11.10;99.90;;;;;;5054438;28;20449;-67
2023/03/24 01:34:39;;;;;;;5.70;2.28;;;11.10;99.90;;;;;;5036804;28;20045;-66
2023/03/24 01:37:04;;;;;;;3.80;2.50;;;11.00;99.90;;;;;;5036611;28;20048;-66
2023/03/24 01:39:31;;;;;;;6.90;2.70;;;11.10;99.90;;;;;;5054894;28;20132;-66
2023/03/24 01:41:57;;;;;;;5.72;2.45;;;11.10;99.90;;;;;;5036613;28;20049;-66
2023/03/24 01:44:37;;;;;;;7.25;2.75;;;11.00;99.90;;;;;;5053914;28;20041;-66
2023/03/24 01:47:06;;;;;;;4.13;2.60;;;11.00;99.90;;;;;;5036470;28;20044;-66
2023/03/24 01:49:37;;;;;;;6.85;2.88;;;11.00;99.90;;;;;;5036482;28;20405;-67
2023/03/24 01:52:08;;;;;;;6.65;2.70;;;11.00;99.90;;;;;;5054063;28;20049;-67
2023/03/24 01:54:57;;;;;;;3.53;2.03;;;10.90;99.90;;;;;;5054868;28;20049;-67
2023/03/24 01:57:25;;;;;;;4.63;2.35;;;10.90;99.90;;;;;;5036820;28;20128;-67
2023/03/24 01:59:55;;;;;;;5.25;2.50;;;10.90;99.90;;;;;;5053987;28;20044;-66
2023/03/24 02:02:21;;;;;;;4.10;2.55;;;10.90;99.90;;;;;;5054620;28;20044;-67
2023/03/24 02:04:57;;;;;;;6.05;2.28;;;11.00;99.90;;;;;;5054039;28;20052;-68
2023/03/24 02:07:34;;;;;;;4.88;2.50;;;10.90;99.90;;;;;;5054368;28;20041;-68
2023/03/24 02:10:04;;;;;;;4.45;2.50;;;11.10;99.90;;;;;;5054980;28;20059;-67
2023/03/24 02:12:31;;;;;;;5.13;2.65;;;11.00;99.90;;;;;;5058490;28;20056;-67
2023/03/24 02:14:57;;;;;;;5.28;2.40;;;11.00;99.90;;;;;;5059268;28;20045;-66
2023/03/24 02:17:47;;;;;;;4.88;2.78;;;11.00;99.90;;;;;;5039848;28;20045;-67
2023/03/24 02:20:51;;;;;;;4.20;2.40;;;11.00;99.90;;;;;;5054442;28;20084;-67
2023/03/24 02:23:42;;;;;;;3.75;2.35;;;10.90;99.90;;;;;;5053674;28;20095;-68
2023/03/24 02:26:32;;;;;;;3.03;1.83;;;11.00;99.90;;;;;;5053374;28;20060;-67
2023/03/24 02:29:07;;;;;;;5.47;2.67;;;11.00;99.90;;;;;;5054118;28;20118;-66
2023/03/24 02:31:51;;;;;;;5.38;2.28;;;11.00;99.90;;;;;;5053507;28;20041;-66
2023/03/24 02:34:32;;;;;;;3.17;2.00;;;11.00;99.90;;;;;;5035796;28;20144;-67
2023/03/24 02:36:58;;;;;;;3.75;2.13;;;11.00;99.90;;;;;;5053818;28;20049;-66
2023/03/24 02:39:45;;;;;;;3.28;2.38;;;10.90;99.90;;;;;;5036561;28;20080;-67
2023/03/24 02:42:38;;;;;;;5.97;2.25;;;11.00;99.90;;;;;;5020348;28;20385;-67
2023/03/24 02:45:16;;;;;;;3.72;1.88;;;11.00;99.90;;;;;;5036175;28;20049;-67
2023/03/24 02:47:54;;;;;;;4.55;2.25;;;11.10;99.90;;;;;;5053737;28;20064;-67
2023/03/24 02:50:46;;;;;;;3.85;1.95;;;11.00;99.90;;;;;;5054159;28;20357;-67
2023/03/24 02:53:20;;;;;;;3.92;2.38;;;11.00;99.90;;;;;;5054218;28;20048;-67
2023/03/24 02:56:02;;;;;;;3.78;2.15;;;11.40;99.90;;;;;;5053361;28;20053;-67
2023/03/24 02:58:45;;;;;;;5.15;2.67;;;11.10;99.90;;;;;;5037868;28;20508;-67
2023/03/24 03:01:30;;;;;;;5.53;2.40;;;11.10;99.90;;;;;;5037984;28;20471;-67
2023/03/24 03:04:09;;;;;;;5.10;2.80;;;11.10;99.90;;;;;;5054125;28;20053;-67
2023/03/24 03:06:41;;;;;;;4.18;2.47;;;11.10;99.90;;;;;;5053922;28;20131;-67
2023/03/24 03:09:11;;;;;;;4.07;2.43;;;11.00;99.90;;;;;;5052896;28;20053;-67
2023/03/24 03:11:40;;;;;;;3.83;2.45;;;11.10;99.90;;;;;;5053246;28;20060;-67
2023/03/24 03:14:14;;;;;;;6.13;2.60;;;11.10;99.90;;;;;;5053177;28;20128;-67
2023/03/24 03:16:52;;;;;;;3.85;2.70;;;11.20;99.90;;;;;;5053232;28;20111;-67
2023/03/24 03:19:27;;;;;;;5.55;2.55;;;11.20;99.90;;;;;;5053904;28;20408;-67
2023/03/24 03:21:55;;;;;;;4.05;2.30;;;11.10;99.90;;;;;;5053209;28;20052;-67
2023/03/24 03:24:36;;;;;;;3.75;2.40;;;11.10;99.90;;;;;;5053072;28;20045;-68
2023/03/24 03:27:08;;;;;;;3.67;2.17;;;11.10;99.90;;;;;;5053166;28;20045;-67
2023/03/24 03:29:39;;;;;;;4.00;2.73;;;11.10;99.90;;;;;;5053532;28;20092;-67
2023/03/24 03:32:09;;;;;;;5.88;2.72;;;11.20;99.90;;;;;;5053882;28;20363;-68
2023/03/24 03:35:01;;;;;;;3.15;2.30;;;11.10;99.90;;;;;;5036152;28;20041;-68
2023/03/24 03:37:45;;;;;;;4.63;2.45;;;11.20;99.90;;;;;;5038667;28;20048;-67
2023/03/24 03:40:35;;;;;;;5.50;2.22;;;11.20;99.90;;;;;;5039104;28;20492;-67
2023/03/24 03:43:02;;;;;;;4.82;2.47;;;12.00;99.90;;;;;;5056052;28;20059;-67
2023/03/24 03:45:27;;;;;;;2.72;2.15;;;11.20;99.90;;;;;;5023373;28;20056;-68
2023/03/24 03:47:54;;;;;;;5.00;2.25;;;11.20;99.90;;;;;;5056480;28;20389;-68
2023/03/24 03:50:20;;;;;;;2.97;1.83;;;11.20;99.90;;;;;;5038930;28;20110;-68
2023/03/24 03:52:46;;;;;;;5.18;2.63;;;11.20;99.90;;;;;;5038738;28;20075;-67
2023/03/24 03:55:12;;;;;;;3.22;2.40;;;11.20;99.90;;;;;;5056329;28;20060;-68
2023/03/24 03:57:39;;;;;;;5.05;2.03;;;11.20;99.90;;;;;;5055908;28;20512;-68
2023/03/24 04:00:14;;;;;;;4.18;2.55;;;11.20;99.90;;;;;;5038660;28;20422;-67
2023/03/24 04:03:17;;;;;;;3.05;1.95;;;11.30;99.90;;;;;;5056191;28;20489;-69
2023/03/24 04:06:03;;;;;;;3.63;2.33;;;11.20;99.90;;;;;;5056159;28;20557;-71
2023/03/24 04:08:51;;;;;;;1.98;0.80;;;11.20;99.90;;;;;;5055723;28;20055;-69
2023/03/24 04:11:51;;;;;;;1.58;0.80;;;11.20;99.90;;;;;;5056710;28;20049;-74
2023/03/24 04:14:36;;;;;;;2.40;1.20;;;11.00;99.90;;;;;;5056061;28;20053;-72
2023/03/24 04:17:17;;;;;;;2.75;1.33;;;10.90;99.90;;;;;;5039136;28;20044;-68
2023/03/24 04:20:31;;;;;;;3.15;1.02;;;10.80;99.90;;;;;;5055839;28;20041;-69
2023/03/24 04:23:17;;;;;;;3.33;1.02;;;10.70;99.90;;;;;;4994832;28;20053;-70
2023/03/24 04:26:26;;;;;;;2.75;0.90;;;10.70;99.90;;;;;;4994941;28;20382;-69
2023/03/24 04:29:01;;;;;;;2.83;0.90;;;10.50;99.90;;;;;;5049737;28;20053;-70
2023/03/24 04:31:52;;;;;;;2.28;1.00;;;10.50;99.90;;;;;;5055576;28;20088;-70
2023/03/24 04:34:28;;;;;;;2.95;0.80;;;10.40;99.90;;;;;;5038295;28;20554;-68
2023/03/24 04:37:05;;;;;;;5.43;0.95;;;10.50;99.90;;;;;;5055586;28;20539;-69
2023/03/24 04:39:37;;;;;;;1.48;0.70;;;10.30;99.90;;;;;;5055426;28;20044;-69
2023/03/24 04:42:09;;;;;;;2.50;0.75;;;10.30;99.90;;;;;;5038447;28;20063;-69
2023/03/24 04:44:35;;;;;;;4.30;0.70;;;10.20;99.90;;;;;;5055398;28;20516;-71
2023/03/24 04:47:03;;;;;;;4.60;0.80;;;10.10;99.90;;;;;;5020750;28;20124;-70
2023/03/24 04:49:29;;;;;;;4.22;0.63;;;10.10;99.90;;;;;;5054853;28;20041;-70
2023/03/24 04:51:55;;;;;;;3.45;0.80;;;10.00;99.90;;;;;;5056337;28;20048;-71
2023/03/24 04:54:22;;;;;;;1.63;0.60;;;10.00;99.90;;;;;;5021005;28;20055;-68
2023/03/24 04:56:50;;;;;;;2.85;0.80;;;10.00;99.90;;;;;;5055160;28;20045;-71
2023/03/24 04:59:17;;;;;;;3.78;0.57;;;9.90;99.90;;;;;;5037759;28;20037;-68
2023/03/24 05:01:48;;;;;;;2.00;0.50;;;9.90;99.90;;;;;;5037518;28;20123;-68
2023/03/24 05:04:15;;;;;;;3.35;0.52;;;9.80;99.90;;;;;;5055338;28;20384;-72
2023/03/24 05:06:41;;;;;;;1.75;0.50;;;9.80;99.90;;;;;;5054971;28;20128;-76
2023/03/24 05:09:06;;;;;;;4.45;0.60;;;9.70;99.90;;;;;;5037247;28;20145;-68
2023/03/24 05:11:32;;;;;;;4.25;0.60;;;9.70;99.90;;;;;;5054903;28;20110;-69
2023/03/24 05:13:58;;;;;;;3.22;0.70;;;9.80;99.90;;;;;;5055190;28;20052;-69
2023/03/24 05:16:24;;;;;;;2.85;0.75;;;9.70;99.90;;;;;;5055334;28;20053;-68
2023/03/24 05:18:50;;;;;;;2.45;0.55;;;9.50;99.90;;;;;;5020490;28;20400;-73
2023/03/24 05:21:16;;;;;;;2.78;0.80;;;9.70;99.90;;;;;;5055174;28;20056;-68
2023/03/24 05:23:41;;;;;;;4.57;0.60;;;9.50;99.90;;;;;;5037874;28;20042;-69
2023/03/24 05:26:07;;;;;;;5.28;0.90;;;9.50;99.90;;;;;;5054522;28;20066;-68
2023/03/24 05:28:33;;;;;;;3.05;0.70;;;9.50;99.90;;;;;;5054544;28;20041;-69
2023/03/24 05:31:00;;;;;;;3.63;0.70;;;9.50;99.90;;;;;;5020197;28;20136;-68
2023/03/24 05:33:26;;;;;;;7.22;1.00;;;9.50;99.90;;;;;;5054456;28;20056;-68
2023/03/24 05:35:51;;;;;;;4.45;0.77;;;9.30;99.90;;;;;;5054392;28;20048;-74
2023/03/24 05:38:17;;;;;;;4.38;0.80;;;9.40;99.90;;;;;;5054594;28;20460;-67
2023/03/24 05:40:43;;;;;;;6.13;1.13;;;9.50;99.90;;;;;;5054298;28;20037;-68
2023/03/24 05:43:11;;;;;;;4.50;0.80;;;9.40;99.90;;;;;;5054325;28;20045;-67
2023/03/24 05:45:37;;;;;;;3.40;0.70;;;9.30;99.90;;;;;;5054250;28;20056;-67
2023/03/24 05:48:03;;;;;;;5.40;0.93;;;9.30;99.90;;;;;;5036448;28;20082;-67
2023/03/24 05:50:29;;;;;;;6.60;1.10;;;9.40;99.90;;;;;;5054145;28;20177;-67
2023/03/24 05:52:55;;;;;;;6.20;0.95;;;9.40;99.90;;;;;;5054053;28;20467;-67
2023/03/24 05:55:20;;;;;;;5.05;1.00;;;9.40;99.90;;;;;;5054062;28;20041;-67
2023/03/24 05:57:46;;;;;;;6.85;1.30;;;9.20;99.90;;;;;;5036256;28;20045;-68
2023/03/24 06:00:16;;;;;;;6.38;1.10;;;9.30;99.90;;;;;;5036170;28;20076;-67
2023/03/24 06:02:43;;;;;;;6.57;1.02;;;9.30;99.90;;;;;;5036480;28;20455;-68
2023/03/24 06:05:10;;;;;;;5.03;1.00;;;9.30;99.90;;;;;;5054718;28;20053;-69
2023/03/24 06:07:37;;;;;;;5.22;1.30;;;9.40;99.90;;;;;;5036035;28;20110;-68
2023/03/24 06:10:06;;;;;;;7.60;1.40;;;9.30;99.90;;;;;;5035840;28;20057;-68
2023/03/24 06:12:32;;;;;;;8.20;1.73;;;9.30;99.90;;;;;;5053956;28;20057;-67
2023/03/24 06:14:59;;;;;;;5.25;1.08;;;9.40;99.90;;;;;;5053664;28;20041;-69
2023/03/24 06:17:27;;;;;;;4.38;1.17;;;9.30;99.90;;;;;;5053798;28;20045;-67
2023/03/24 06:20:01;;;;;;;7.45;1.27;;;9.30;99.90;;;;;;5054461;28;20051;-67
2023/03/24 06:22:28;;;;;;;7.30;1.65;;;9.50;99.90;;;;;;5053755;28;20159;-68
2023/03/24 06:24:55;;;;;;;10.07;1.70;;;9.40;99.90;;;;;;5053659;28;20048;-68
2023/03/24 06:27:24;;;;;;;7.20;1.40;;;9.30;99.90;;;;;;5054186;28;20060;-68
2023/03/24 06:29:52;;;;;;;5.80;1.33;;;9.30;99.90;;;;;;5053546;28;20049;-72
2023/03/24 06:32:20;;;;;;;5.32;1.10;;;9.30;99.90;;;;;;5053236;28;20497;-67
2023/03/24 06:34:46;;;;;;;7.93;1.15;;;9.30;99.90;;;;;;5053443;28;20362;-68
2023/03/24 06:37:12;;;;;;;5.93;1.40;;;9.40;99.90;;;;;;5053462;28;20131;-67
2023/03/24 06:39:38;;;;;;;5.72;1.02;;;9.40;99.90;;;;;;5035553;28;20037;-69
2023/03/24 06:42:04;;;;;;;6.93;1.77;;;9.50;99.90;;;;;;5053997;28;20394;-67
2023/03/24 06:44:30;;;;;;;8.35;1.40;;;9.30;99.90;;;;;;5053949;28;20099;-71
2023/03/24 06:46:55;;;;;;;5.68;1.55;;;9.20;99.90;;;;;;5035576;28;20099;-68
2023/03/24 06:49:21;;;;;;;8.55;1.38;;;9.40;99.90;;;;;;5053263;28;20045;-69
2023/03/24 06:51:47;;;;;;;7.28;1.50;;;9.20;99.90;;;;;;5053865;28;20052;-68
2023/03/24 06:54:13;;;;;;;6.00;1.42;;;9.40;99.90;;;;;;5036515;28;20071;-73
2023/03/24 06:56:38;;;;;;;6.10;1.10;;;9.30;99.90;;;;;;5053257;28;20048;-67
2023/03/24 06:59:04;;;;;;;9.73;1.20;;;9.30;99.90;;;;;;5053277;28;20049;-67
2023/03/24 07:01:31;;;;;;;3.55;1.00;;;9.30;99.90;;;;;;5053700;28;20108;-68
2023/03/24 07:03:56;;;;;;;6.78;0.90;;;9.20;99.90;;;;;;5053185;28;20049;-67
2023/03/24 07:06:22;;;;;;;6.07;1.40;;;9.30;99.90;;;;;;5019116;28;20049;-68
2023/03/24 07:08:49;;;;;;;7.85;1.23;;;9.30;99.90;;;;;;5053418;28;20056;-69
2023/03/24 07:11:15;;;;;;;6.03;0.90;;;9.30;99.90;;;;;;5054606;28;20560;-67
2023/03/24 07:13:41;;;;;;;7.53;0.98;;;9.50;99.90;;;;;;5057094;28;20072;-68
2023/03/24 07:16:07;;;;;;;7.45;1.30;;;9.30;99.90;;;;;;5057577;28;20477;-66
2023/03/24 07:18:33;;;;;;;4.97;1.20;;;9.30;99.90;;;;;;5057016;28;20037;-69
2023/03/24 07:20:59;;;;;;;7.22;1.23;;;9.40;99.90;;;;;;5039325;28;20420;-67
2023/03/24 07:23:26;;;;;;;5.05;1.00;;;9.30;99.90;;;;;;5022902;28;20048;-69
2023/03/24 07:25:52;;;;;;;5.88;1.48;;;9.40;99.90;;;;;;5056866;28;20045;-68
2023/03/24 07:28:18;;;;;;;6.15;1.00;;;9.40;99.90;;;;;;5056865;28;20045;-69
2023/03/24 07:30:44;;;;;;;5.78;0.95;;;9.40;99.90;;;;;;5056682;28;20514;-66
2023/03/24 07:33:11;;;;;;;5.20;0.90;;;9.40;99.90;;;;;;5022791;28;20049;-66
2023/03/24 07:35:38;;;;;;;7.78;1.13;;;9.40;99.90;;;;;;5022707;28;20374;-67
2023/03/24 07:38:04;;;;;;;6.20;1.20;;;9.50;99.90;;;;;;5056637;28;20051;-67
2023/03/24 07:40:30;;;;;;;9.02;1.17;;;9.40;99.90;;;;;;5056581;28;20128;-67
2023/03/24 07:42:59;;;;;;;7.63;1.30;;;9.40;99.90;;;;;;5056571;28;20045;-67
2023/03/24 07:45:26;;;;;;;4.75;1.20;;;9.40;99.90;;;;;;5057283;28;20435;-67
2023/03/24 07:47:51;;;;;;;7.93;1.20;;;9.50;99.90;;;;;;5038991;28;20120;-67
2023/03/24 07:50:17;;;;;;;7.15;1.20;;;9.60;99.90;;;;;;5056357;28;20182;-69
2023/03/24 07:52:47;;;;;;;6.38;1.25;;;9.60;99.90;;;;;;5039509;28;20121;-66
2023/03/24 07:55:14;;;;;;;4.88;1.30;;;9.50;99.90;;;;;;5056374;28;20045;-67
2023/03/24 07:57:47;;;;;;;5.90;1.17;;;9.50;99.90;;;;;;5056263;28;20095;-69
2023/03/24 08:00:14;;;;;;;;;;;9.60;99.90;;;;;;5056705;28;20076;-67
2023/03/24 08:02:41;;;;;;;9.55;1.48;;;9.60;99.90;;;;;;5038737;28;20395;-66
2023/03/24 08:05:09;;;;;;;9.40;2.22;;;9.60;99.90;;;;;;5056231;28;20048;-70
2023/03/24 08:07:35;;;;;;;7.97;1.73;;;9.60;99.90;;;;;;5057660;28;20063;-66
2023/03/24 08:10:02;;;;;;;10.48;2.08;;;9.50;99.90;;;;;;5022675;28;20049;-67
2023/03/24 08:12:28;;;;;;;11.65;2.58;;;9.60;99.90;;;;;;5039718;28;20151;-67
2023/03/24 08:14:54;;;;;;;6.18;1.35;;;9.60;99.90;;;;;;5056542;28;20528;-66
2023/03/24 08:17:19;;;;;;;5.57;1.23;;;9.60;99.90;;;;;;5056320;28;20446;-72
2023/03/24 08:19:46;;;;;;;9.25;1.38;;;9.60;99.90;;;;;;5038536;28;20040;-68
2023/03/24 08:22:12;;;;;;;11.35;1.23;;;9.60;99.90;;;;;;5055212;28;20053;-69
2023/03/24 08:24:38;;;;;;;7.45;1.20;;;9.60;99.90;;;;;;5037985;28;20127;-68
2023/03/24 08:27:06;;;;;;;9.27;2.00;;;9.70;99.90;;;;;;5038404;28;20060;-71
2023/03/24 08:29:33;;;;;;;8.38;1.60;;;9.70;99.90;;;;;;5022113;28;20422;-67
2023/03/24 08:32:00;;;;;;;8.73;1.58;;;9.60;99.90;;;;;;5056730;28;20055;-66
2023/03/24 08:34:26;;;;;;;12.35;1.65;;;9.80;99.90;;;;;;5055715;28;20051;-67
2023/03/24 08:36:52;;;;;;;11.80;1.60;;;9.70;99.90;;;;;;5056330;28;20056;-67
2023/03/24 08:39:19;;;;;;;10.20;1.42;;;9.80;99.90;;;;;;5056668;28;20045;-67
2023/03/24 08:41:45;;;;;;;10.45;1.30;;;9.80;99.90;;;;;;5056173;28;20067;-66
2023/03/24 08:44:11;;;;;;;9.50;1.35;;;9.80;99.90;;;;;;5056291;28;20045;-66
2023/03/24 08:46:38;;;;;;;8.13;1.50;;;9.90;99.90;;;;;;5038820;28;20080;-66
2023/03/24 08:49:04;;;;;;;9.00;1.70;;;9.80;99.90;;;;;;5058360;28;20459;-66
2023/03/24 08:51:31;;;;;;;13.23;2.28;;;9.80;99.90;;;;;;5058347;28;20076;-67
2023/03/24 08:53:56;;;;;;;15.93;2.17;;;9.80;99.90;;;;;;5038979;28;20081;-75
2023/03/24 08:56:22;;;;;;;11.43;1.45;;;9.80;99.90;;;;;;5021714;28;20041;-68
2023/03/24 08:58:50;;;;;;;12.35;1.50;;;9.80;99.90;;;;;;5038035;28;20072;-67
2023/03/24 09:01:17;;;;;;;8.52;1.20;;;9.60;99.90;;;;;;5056052;28;20045;-67
2023/03/24 09:03:43;;;;;;;8.80;1.73;;;9.70;99.90;;;;;;5055422;28;20132;-70
2023/03/24 09:06:10;;;;;;;8.65;1.55;;;9.70;99.90;;;;;;5055321;28;20051;-68
2023/03/24 09:08:36;;;;;;;9.10;1.27;;;9.60;99.90;;;;;;5055090;28;20055;-68
2023/03/24 09:11:01;;;;;;;7.03;1.60;;;9.60;99.90;;;;;;5037028;28;20054;-71
2023/03/24 09:13:27;;;;;;;8.98;1.85;;;9.60;99.90;;;;;;5037546;28;20049;-68
2023/03/24 09:15:58;;;;;;;7.88;1.38;;;9.40;99.90;;;;;;5055126;28;20048;-68
2023/03/24 09:18:24;;;;;;;8.63;2.03;;;9.40;99.90;;;;;;5055089;28;20083;-69
2023/03/24 09:20:51;;;;;;;7.03;1.40;;;9.60;99.90;;;;;;5055034;28;20052;-69
2023/03/24 09:23:17;;;;;;;9.25;1.27;;;9.60;99.90;;;;;;5037107;28;20151;-71
2023/03/24 09:25:43;;;;;;;12.50;1.60;;;9.60;99.90;;;;;;5055423;28;20099;-69
2023/03/24 09:28:09;;;;;;;10.73;1.95;;;9.70;99.90;;;;;;5054817;28;20037;-68
2023/03/24 09:30:35;;;;;;;4.68;1.20;;;9.70;99.90;;;;;;5054489;28;20084;-69
2023/03/24 09:33:00;;;;;;;12.23;2.10;;;9.80;99.90;;;;;;5055248;28;20083;-68
2023/03/24 09:35:27;;;;;;;6.80;1.13;;;9.90;99.90;;;;;;5054366;28;20049;-68
2023/03/24 09:37:54;;;;;;;8.60;1.00;;;10.10;99.90;;;;;;5054567;28;20052;-70
2023/03/24 09:40:25;;;;;;;7.82;1.23;;;10.10;99.90;;;;;;5054376;28;20045;-67
2023/03/24 09:43:17;;;;;;;12.93;1.20;;;10.20;99.90;;;;;;5055053;28;20098;-67
2023/03/24 09:45:52;;;;;;;5.13;0.93;;;10.40;99.90;;;;;;5054406;28;20041;-70
2023/03/24 09:48:27;;;;;;;11.05;1.20;;;10.30;99.90;;;;;;5036408;28;20037;-67
2023/03/24 09:51:06;;;;;;;5.03;1.25;;;10.50;99.90;;;;;;5055061;28;20452;-68
2023/03/24 09:53:37;;;;;;;7.07;0.90;;;10.50;99.90;;;;;;5022220;28;20491;-75
2023/03/24 09:56:15;;;;;;;6.20;1.33;;;10.60;99.90;;;;;;5036614;28;20076;-79
2023/03/24 09:58:43;;;;;;;8.38;1.33;;;10.80;99.90;;;;;;5054001;28;20052;-69
2023/03/24 10:01:13;;;;;;;8.75;1.33;;;10.90;99.90;;;;;;5036389;28;20501;-67
2023/03/24 10:03:39;;;;;;;10.05;1.73;;;11.00;99.90;;;;;;5054054;28;20048;-66
2023/03/24 10:06:21;;;;;;;8.82;1.63;;;11.20;99.90;;;;;;5036103;28;20049;-67
2023/03/24 10:09:17;;;;;;;7.50;1.17;;;11.20;99.90;;;;;;5054611;28;20127;-66
2023/03/24 10:12:16;;;;;;;6.68;1.10;;;11.40;99.90;;;;;;5013534;28;20058;-66
2023/03/24 10:14:50;;;;;;;7.80;1.50;;;11.40;99.90;;;;;;5014020;28;20042;-66
2023/03/24 10:17:55;;;;;;;8.20;1.40;;;11.40;99.90;;;;;;5012926;28;20144;-66
2023/03/24 10:20:32;;;;;;;6.88;1.67;;;11.50;99.90;;;;;;5001977;28;20054;-68
2023/03/24 10:23:13;;;;;;;11.15;1.83;;;11.50;99.90;;;;;;5014208;28;20099;-65
2023/03/24 10:25:50;;;;;;;6.32;0.93;;;11.50;99.90;;;;;;5013848;28;20129;-67
2023/03/24 10:28:42;;;;;;;5.30;0.90;;;11.50;99.90;;;;;;5013840;28;20042;-66
2023/03/24 10:31:12;;;;;;;7.60;1.40;;;11.50;99.90;;;;;;5010259;28;20085;-68
2023/03/24 10:33:42;;;;;;;8.70;1.10;;;11.40;99.90;;;;;;5013767;28;20057;-67
2023/03/24 10:36:17;;;;;;;9.02;1.15;;;11.60;99.90;;;;;;5013982;28;20081;-67
2023/03/24 10:38:44;;;;;;;6.55;1.20;;;11.60;99.90;;;;;;5014455;28;20046;-67
2023/03/24 10:41:22;;;;;;;6.50;1.30;;;11.70;99.90;;;;;;5013890;28;20402;-67
2023/03/24 10:43:50;;;;;;;7.97;2.20;;;11.70;99.90;;;;;;5014329;28;20050;-67
2023/03/24 10:46:21;;;;;;;7.07;1.27;;;11.80;99.90;;;;;;5012151;28;20498;-66
2023/03/24 10:48:49;;;;;;;9.73;1.52;;;11.80;99.90;;;;;;5013861;28;20046;-66
2023/03/24 10:51:17;;;;;;;11.10;1.52;;;11.80;99.90;;;;;;5013740;28;20054;-69
2023/03/24 10:53:47;;;;;;;9.55;1.20;;;12.00;99.90;;;;;;5013730;28;20053;-66
2023/03/24 10:56:40;;;;;;;8.45;1.35;;;12.00;99.90;;;;;;5013686;28;20046;-67
2023/03/24 10:59:26;;;;;;;8.05;1.10;;;12.10;99.90;;;;;;5013582;28;20516;-67
2023/03/24 11:02:19;;;;;;;8.27;1.38;;;12.10;99.90;;;;;;5013421;28;20490;-70
2023/03/24 11:05:11;;;;;;;6.97;1.15;;;12.10;99.90;;;;;;5008255;28;20057;-67
2023/03/24 11:07:40;;;;;;;9.75;1.52;;;12.10;99.90;;;;;;5003317;28;20054;-67
2023/03/24 11:10:17;;;;;;;8.05;1.30;;;12.20;99.90;;;;;;5031602;28;20053;-67
2023/03/24 11:12:52;;;;;;;4.50;0.95;;;12.30;99.90;;;;;;5052810;28;20485;-66
2023/03/24 11:15:20;;;;;;;9.70;1.77;;;12.30;99.90;;;;;;5053086;28;20496;-65
2023/03/24 11:17:56;;;;;;;7.25;1.08;;;12.30;99.90;;;;;;5052835;28;20488;-67
2023/03/24 11:20:49;;;;;;;8.75;1.83;;;12.30;99.90;;;;;;5035496;28;20095;-71
2023/03/24 11:23:56;;;;;;;5.70;1.00;;;12.50;99.90;;;;;;5035608;28;20140;-69
2023/03/24 11:26:29;;;;;;;6.20;1.17;;;12.40;99.90;;;;;;4991673;28;20078;-67
2023/03/24 11:28:59;;;;;;;2.85;1.05;;;12.50;99.90;;;;;;4991610;28;20058;-67
2023/03/24 11:31:30;;;;;;;5.80;1.02;;;12.60;99.90;;;;;;5025678;28;20580;-67
2023/03/24 11:34:06;;;;;;;8.98;1.10;;;12.50;99.90;;;;;;5035737;28;20057;-66
2023/03/24 11:36:32;;;;;;;6.15;1.27;;;12.60;99.90;;;;;;5036028;28;20381;-68
2023/03/24 11:39:16;;;;;;;9.93;1.40;;;12.60;99.90;;;;;;5018934;28;20094;-68
2023/03/24 11:42:02;;;;;;;8.30;1.52;;;12.60;99.90;;;;;;5035606;28;20090;-71
2023/03/24 11:44:49;;;;;;;5.45;0.93;;;12.70;99.90;;;;;;5052888;28;20055;-67
2023/03/24 11:47:31;;;;;;;6.03;1.20;;;12.60;99.90;;;;;;5053254;28;20493;-68
2023/03/24 11:50:09;;;;;;;6.95;1.05;;;12.70;99.90;;;;;;5036973;28;20392;-66
2023/03/24 11:52:52;;;;;;;6.20;0.88;;;12.70;99.90;;;;;;5052549;28;20504;-68
2023/03/24 11:55:43;;;;;;;5.35;0.90;;;12.90;99.90;;;;;;5035674;28;20048;-67
2023/03/24 11:58:24;;;;;;;6.68;1.15;;;12.70;99.90;;;;;;5054303;28;20037;-68
2023/03/24 12:01:02;;;;;;;7.38;1.15;;;12.70;99.90;;;;;;5038554;28;20048;-68
2023/03/24 12:03:51;;;;;;;7.22;1.00;;;12.60;99.90;;;;;;5056931;28;20048;-68
2023/03/24 12:06:45;;;;;;;6.93;1.08;;;12.50;99.90;;;;;;5056833;28;20045;-68
2023/03/24 12:09:14;;;;;;;6.80;0.80;;;12.60;99.90;;;;;;5055959;28;20045;-66
2023/03/24 12:12:00;;;;;;;3.60;0.60;;;12.50;99.90;;;;;;5056618;28;20393;-66
2023/03/24 12:14:55;;;;;;;6.50;0.90;;;12.50;99.90;;;;;;5055880;28;20515;-67
2023/03/24 12:17:24;;;;;;;3.20;0.60;;;12.60;99.90;;;;;;5010494;28;20052;-68
2023/03/24 12:19:59;;;;;;;3.95;0.73;;;12.60;99.90;;;;;;5056016;28;20124;-66
2023/03/24 12:22:39;;;;;;;6.22;0.98;;;13.30;99.90;;;;;;5055939;28;20506;-66
2023/03/24 12:25:27;;;;;;;9.50;1.25;;;12.80;99.90;;;;;;5056307;28;20504;-69
2023/03/24 12:27:56;;;;;;;6.07;1.10;;;12.90;99.90;;;;;;5038686;28;20057;-68
2023/03/24 12:30:43;;;;;;;5.47;0.95;;;12.90;99.90;;;;;;5056504;28;20377;-67
2023/03/24 12:33:45;;;;;;;10.07;1.50;;;13.10;99.90;;;;;;5056128;28;20048;-68
2023/03/24 12:36:10;;;;;;;4.18;0.63;;;13.10;99.90;;;;;;5038662;28;20377;-67
2023/03/24 12:39:17;;;;;;;6.05;1.08;;;13.00;99.90;;;;;;5056556;28;20048;-67
2023/03/24 12:42:04;;;;;;;5.18;0.80;;;13.10;99.90;;;;;;5021742;28;20092;-68
2023/03/24 12:44:59;;;;;;;6.05;0.93;;;12.90;99.90;;;;;;5055601;28;20084;-66
2023/03/24 12:47:53;;;;;;;6.70;1.10;;;12.90;99.90;;;;;;5026613;28;20104;-67
2023/03/24 12:50:46;;;;;;;5.78;1.02;;;12.90;99.90;;;;;;5055622;28;20470;-66
2023/03/24 12:53:35;;;;;;;5.95;1.17;;;13.00;99.90;;;;;;5037550;28;20554;-66
2023/03/24 12:56:17;;;;;;;5.40;0.90;;;13.00;99.90;;;;;;5055323;28;20052;-66
2023/03/24 12:59:01;;;;;;;5.38;0.70;;;13.00;99.90;;;;;;5056148;28;20127;-67
2023/03/24 13:01:36;;;;;;;4.40;0.70;;;12.90;99.90;;;;;;5038187;28;20507;-68
2023/03/24 13:04:24;;;;;;;6.32;1.05;;;12.90;99.90;;;;;;5055203;28;20048;-67
2023/03/24 13:06:57;;;;;;;5.95;1.27;;;12.80;99.90;;;;;;5055071;28;20481;-66
2023/03/24 13:09:48;;;;;;;3.95;0.60;;;12.90;99.90;;;;;;5054278;28;20516;-67
2023/03/24 13:12:43;;;;;;;5.70;1.17;;;13.10;99.90;;;;;;5054906;28;20141;-67
2023/03/24 13:15:11;;;;;;;4.60;0.70;;;13.20;99.90;;;;;;5035332;28;20497;-67
2023/03/24 13:17:56;;;;;;;6.75;1.27;;;13.50;99.90;;;;;;5037223;28;20041;-66
2023/03/24 13:20:30;;;;;;;8.10;0.80;;;13.40;99.90;;;;;;5037620;28;20052;-66